createdAt,value
2018-12-23T00:01:30.394Z,8.27
2018-12-23T00:03:36.617Z,9.10
2018-12-23T00:05:43.346Z,8.03
2018-12-23T00:07:49.726Z,6.50
2018-12-23T00:09:56.043Z,6.20
2018-12-23T00:12:02.228Z,7.00
2018-12-23T00:14:12.363Z,9.60
2018-12-23T00:16:18.907Z,4.27
2018-12-23T00:18:25.180Z,7.77
2018-12-23T00:20:32.415Z,6.17
2018-12-23T00:22:39.358Z,5.60
2018-12-23T00:24:45.498Z,5.57
2018-12-23T00:26:53.427Z,3.30
2018-12-23T00:29:00.907Z,7.53
2018-12-23T00:31:06.994Z,9.63
2018-12-23T00:33:16.161Z,6.83
2018-12-23T00:38:29.917Z,5.80
2018-12-23T00:40:50.093Z,3.83
2018-12-23T00:43:09.686Z,5.90
2018-12-23T00:45:31.100Z,8.97
2018-12-23T00:47:52.696Z,4.30
2018-12-23T00:50:12.786Z,3.83
2018-12-23T00:52:33.426Z,5.23
2018-12-23T00:54:53.871Z,7.30
2018-12-23T00:57:13.869Z,3.20
2018-12-23T00:59:34.263Z,4.33
2018-12-23T01:01:53.639Z,5.37
2018-12-23T01:04:14.319Z,3.63
2018-12-23T01:06:34.569Z,3.47
2018-12-23T01:08:54.588Z,8.43
2018-12-23T01:11:14.059Z,4.50
2018-12-23T01:13:34.949Z,12.97
2018-12-23T01:16:04.607Z,5.20
2018-12-23T01:21:21.435Z,5.70
2018-12-23T01:23:44.853Z,3.80
2018-12-23T01:26:32.465Z,4.70
2018-12-23T01:29:08.899Z,4.53
2018-12-23T01:31:30.263Z,6.90
2018-12-23T01:33:52.025Z,6.20
2018-12-23T01:36:19.667Z,10.40
2018-12-23T01:39:01.640Z,9.17
2018-12-23T01:41:23.522Z,5.03
2018-12-23T01:43:43.234Z,12.00
2018-12-23T01:46:04.615Z,10.10
2018-12-23T01:48:25.276Z,8.73
2018-12-23T01:50:46.942Z,10.27
2018-12-23T01:53:07.394Z,8.40
2018-12-23T01:55:28.080Z,11.60
2018-12-23T01:57:50.310Z,10.37
2018-12-23T02:00:12.004Z,9.07
2018-12-23T02:02:34.099Z,11.53
2018-12-23T02:04:53.843Z,12.70
2018-12-23T02:07:16.817Z,8.47
2018-12-23T02:09:49.808Z,7.13
2018-12-23T02:12:09.286Z,11.60
2018-12-23T02:14:29.986Z,8.43
2018-12-23T02:16:53.937Z,10.40
2018-12-23T02:19:17.178Z,7.90
2018-12-23T02:21:37.398Z,13.90
2018-12-23T02:23:59.226Z,10.40
2018-12-23T02:26:19.258Z,14.40
2018-12-23T02:28:37.747Z,15.23
2018-12-23T02:30:57.821Z,8.47
2018-12-23T02:33:17.504Z,9.57
2018-12-23T02:35:38.136Z,7.20
2018-12-23T02:37:58.242Z,10.63
2018-12-23T02:40:17.708Z,7.20
2018-12-23T02:42:37.207Z,14.43
2018-12-23T02:44:55.589Z,10.07
2018-12-23T02:47:14.051Z,10.17
2018-12-23T02:49:34.053Z,14.80
2018-12-23T02:51:42.673Z,12.53
2018-12-23T02:54:02.964Z,11.37
2018-12-23T02:56:22.623Z,8.50
2018-12-23T02:58:42.448Z,7.10
2018-12-23T03:01:02.787Z,8.33
2018-12-23T03:03:22.683Z,9.37
2018-12-23T03:05:42.388Z,7.33
2018-12-23T03:08:02.784Z,12.23
2018-12-23T03:10:22.201Z,10.47
2018-12-23T03:12:41.874Z,8.17
2018-12-23T03:15:01.381Z,10.53
2018-12-23T03:17:21.469Z,14.63
2018-12-23T03:19:40.820Z,13.73
2018-12-23T03:22:01.518Z,11.50
2018-12-23T03:24:21.531Z,6.67
2018-12-23T03:26:41.396Z,9.60
2018-12-23T03:29:02.012Z,15.70
2018-12-23T03:31:21.894Z,11.47
2018-12-23T03:33:41.262Z,11.83
2018-12-23T03:36:00.725Z,8.17
2018-12-23T03:38:20.154Z,10.87
2018-12-23T03:40:39.662Z,9.33
2018-12-23T03:42:59.206Z,12.47
2018-12-23T03:45:19.354Z,7.07
2018-12-23T03:47:39.418Z,11.40
2018-12-23T03:49:57.821Z,9.00
2018-12-23T03:52:16.113Z,6.77
2018-12-23T03:54:35.507Z,10.80
2018-12-23T03:56:54.878Z,16.80
2018-12-23T03:59:14.995Z,7.93
2018-12-23T04:01:33.553Z,13.33
2018-12-23T04:03:53.703Z,9.27
2018-12-23T04:06:13.558Z,10.17
2018-12-23T04:08:32.837Z,9.97
2018-12-23T04:10:52.109Z,11.20
2018-12-23T04:13:12.514Z,16.30
2018-12-23T04:15:32.282Z,8.40
2018-12-23T04:17:50.570Z,9.93
2018-12-23T04:20:10.668Z,13.10
2018-12-23T04:22:30.355Z,9.93
2018-12-23T04:24:50.115Z,8.93
2018-12-23T04:27:09.662Z,9.87
2018-12-23T04:29:29.604Z,10.63
2018-12-23T04:31:49.186Z,9.13
2018-12-23T04:34:09.243Z,11.23
2018-12-23T04:36:34.316Z,9.80
2018-12-23T04:38:51.129Z,6.93
2018-12-23T04:41:10.768Z,9.03
2018-12-23T04:43:30.870Z,13.50
2018-12-23T04:45:49.428Z,8.30
2018-12-23T04:48:09.628Z,4.23
2018-12-23T04:50:28.159Z,6.67
2018-12-23T04:52:49.332Z,9.63
2018-12-23T04:55:08.886Z,7.17
2018-12-23T04:57:27.226Z,12.67
2018-12-23T04:59:47.428Z,7.17
2018-12-23T05:02:06.745Z,8.70
2018-12-23T05:04:25.066Z,8.47
2018-12-23T05:06:45.017Z,5.10
2018-12-23T05:09:05.074Z,17.40
2018-12-23T05:11:26.024Z,7.50
2018-12-23T05:13:44.296Z,5.70
2018-12-23T05:16:04.189Z,4.27
2018-12-23T05:18:24.168Z,8.33
2018-12-23T05:20:43.841Z,10.40
2018-12-23T05:23:03.776Z,7.43
2018-12-23T05:25:23.123Z,10.23
2018-12-23T05:27:43.867Z,8.70
2018-12-23T05:30:03.776Z,13.50
2018-12-23T05:32:23.762Z,9.63
2018-12-23T05:34:43.742Z,9.47
2018-12-23T05:37:03.317Z,7.43
2018-12-23T05:39:23.426Z,7.63
2018-12-23T05:41:43.312Z,7.60
2018-12-23T05:44:03.462Z,10.33
2018-12-23T05:46:22.030Z,8.43
2018-12-23T05:48:42.661Z,15.00
2018-12-23T05:51:02.229Z,11.93
2018-12-23T05:53:22.010Z,9.90
2018-12-23T05:55:40.556Z,17.67
2018-12-23T05:58:00.195Z,10.10
2018-12-23T06:00:19.634Z,8.17
2018-12-23T06:02:38.957Z,9.63
2018-12-23T06:04:59.128Z,14.53
2018-12-23T06:07:17.453Z,31.47
2018-12-23T06:09:37.456Z,10.73
2018-12-23T06:11:57.130Z,5.40
2018-12-23T06:14:17.404Z,9.10
2018-12-23T06:16:36.709Z,10.73
2018-12-23T06:18:57.510Z,11.43
2018-12-23T06:21:17.661Z,9.60
2018-12-23T06:23:38.196Z,11.00
2018-12-23T06:25:57.787Z,8.73
2018-12-23T06:28:17.963Z,8.40
2018-12-23T06:30:37.618Z,13.03
2018-12-23T06:32:57.034Z,13.53
2018-12-23T06:35:16.440Z,11.37
2018-12-23T06:37:34.119Z,8.27
2018-12-23T06:39:54.660Z,12.93
2018-12-23T06:42:14.596Z,17.27
2018-12-23T06:44:34.229Z,12.17
2018-12-23T06:46:55.150Z,9.37
2018-12-23T06:49:15.294Z,13.77
2018-12-23T06:51:35.088Z,15.63
2018-12-23T06:53:55.035Z,19.57
2018-12-23T06:56:14.550Z,9.30
2018-12-23T06:58:33.936Z,8.23
2018-12-23T07:00:53.371Z,12.17
2018-12-23T07:03:13.138Z,13.63
2018-12-23T07:05:33.215Z,18.03
2018-12-23T07:07:52.774Z,12.57
2018-12-23T07:10:12.425Z,19.63
2018-12-23T07:12:32.258Z,11.17
2018-12-23T07:14:52.382Z,12.80
2018-12-23T07:17:12.345Z,30.50
2018-12-23T07:19:33.405Z,12.57
2018-12-23T07:21:52.913Z,15.73
2018-12-23T07:24:12.299Z,13.43
2018-12-23T07:26:32.075Z,10.23
2018-12-23T07:28:51.583Z,14.50
2018-12-23T07:31:11.329Z,12.33
2018-12-23T07:33:31.340Z,15.77
2018-12-23T07:35:50.806Z,12.40
2018-12-23T07:38:10.562Z,7.90
2018-12-23T07:40:30.310Z,11.33
2018-12-23T07:42:49.808Z,10.93
2018-12-23T07:45:09.746Z,8.40
2018-12-23T07:47:29.879Z,11.97
2018-12-23T07:49:48.314Z,14.80
2018-12-23T07:52:08.510Z,16.93
2018-12-23T07:54:28.020Z,10.43
2018-12-23T07:56:47.737Z,8.27
2018-12-23T07:59:07.603Z,11.40
2018-12-23T08:01:27.104Z,15.33
2018-12-23T08:03:46.601Z,24.33
2018-12-23T08:06:06.475Z,12.43
2018-12-23T08:08:24.777Z,9.83
2018-12-23T08:10:44.166Z,10.70
2018-12-23T08:13:11.386Z,13.33
2018-12-23T08:15:31.446Z,11.03
2018-12-23T08:17:51.071Z,8.87
2018-12-23T08:20:11.807Z,16.00
2018-12-23T08:22:32.035Z,14.43
2018-12-23T08:24:52.368Z,18.30
2018-12-23T08:27:12.369Z,14.67
2018-12-23T08:29:32.727Z,8.67
2018-12-23T08:31:52.378Z,11.47
2018-12-23T08:34:11.044Z,11.50
2018-12-23T08:36:31.169Z,10.57
2018-12-23T08:38:50.931Z,6.93
2018-12-23T08:41:11.369Z,17.47
2018-12-23T08:43:31.824Z,14.70
2018-12-23T08:45:51.433Z,10.37
2018-12-23T08:48:11.564Z,11.70
2018-12-23T08:50:31.146Z,15.83
2018-12-23T08:52:50.736Z,16.50
2018-12-23T08:55:10.936Z,11.30
2018-12-23T08:57:30.474Z,12.83
2018-12-23T08:59:50.724Z,9.90
2018-12-23T09:02:10.567Z,11.10
2018-12-23T09:04:28.987Z,12.93
2018-12-23T09:06:49.239Z,10.17
2018-12-23T09:09:08.121Z,15.33
2018-12-23T09:11:27.499Z,13.40
2018-12-23T09:13:46.899Z,8.63
2018-12-23T09:16:05.339Z,15.37
2018-12-23T09:18:25.247Z,17.70
2018-12-23T09:20:45.059Z,14.33
2018-12-23T09:23:04.779Z,10.17
2018-12-23T09:25:23.077Z,10.50
2018-12-23T09:27:43.280Z,12.13
2018-12-23T09:30:03.364Z,9.27
2018-12-23T09:32:22.855Z,13.33
2018-12-23T09:34:42.627Z,5.70
2018-12-23T09:37:02.516Z,5.43
2018-12-23T09:39:22.694Z,12.97
2018-12-23T09:41:42.075Z,8.87
2018-12-23T09:44:01.820Z,7.70
2018-12-23T09:46:21.520Z,10.10
2018-12-23T09:48:41.993Z,6.00
2018-12-23T09:51:01.898Z,9.30
2018-12-23T09:53:22.078Z,13.40
2018-12-23T09:55:41.876Z,6.00
2018-12-23T09:58:01.625Z,7.83
2018-12-23T10:00:22.100Z,7.10
2018-12-23T10:02:40.622Z,13.60
2018-12-23T10:05:00.836Z,10.73
2018-12-23T10:07:09.139Z,15.43
2018-12-23T10:09:29.160Z,6.70
2018-12-23T10:11:49.282Z,10.33
2018-12-23T10:14:09.092Z,8.37
2018-12-23T10:16:29.115Z,9.47
2018-12-23T10:18:48.432Z,7.67
2018-12-23T10:21:10.145Z,11.90
2018-12-23T10:23:29.278Z,10.33
2018-12-23T10:25:48.645Z,7.70
2018-12-23T10:28:07.428Z,10.87
2018-12-23T10:30:25.744Z,9.27
2018-12-23T10:32:45.402Z,9.73
2018-12-23T10:35:05.416Z,11.80
2018-12-23T10:37:24.789Z,5.97
2018-12-23T10:39:44.725Z,13.37
2018-12-23T10:42:03.968Z,8.00
2018-12-23T10:44:23.209Z,6.50
2018-12-23T10:46:43.181Z,8.27
2018-12-23T10:49:02.686Z,9.23
2018-12-23T10:51:22.629Z,12.03
2018-12-23T10:53:42.151Z,5.10
2018-12-23T10:56:02.584Z,8.33
2018-12-23T10:58:22.010Z,8.67
2018-12-23T11:00:41.722Z,9.27
2018-12-23T11:03:01.491Z,10.30
2018-12-23T11:05:21.641Z,10.47
2018-12-23T11:07:41.696Z,11.13
2018-12-23T11:10:02.305Z,5.73
2018-12-23T11:12:22.773Z,8.90
2018-12-23T11:14:42.327Z,10.23
2018-12-23T11:17:02.297Z,7.53
2018-12-23T11:19:22.492Z,16.37
2018-12-23T11:21:42.236Z,8.70
2018-12-23T11:24:02.047Z,17.37
2018-12-23T11:26:21.760Z,9.40
2018-12-23T11:28:41.959Z,9.27
2018-12-23T11:31:01.976Z,15.37
2018-12-23T11:33:22.039Z,14.27
2018-12-23T11:35:42.297Z,9.47
2018-12-23T11:38:02.758Z,11.63
2018-12-23T11:40:22.537Z,11.97
2018-12-23T11:42:42.694Z,10.13
2018-12-23T11:45:03.862Z,14.97
2018-12-23T11:47:23.865Z,9.40
2018-12-23T11:49:44.047Z,9.93
2018-12-23T11:52:04.585Z,7.47
2018-12-23T11:54:27.808Z,13.40
2018-12-23T11:56:47.356Z,4.47
2018-12-23T11:59:06.865Z,7.70
2018-12-23T12:01:26.349Z,11.60
2018-12-23T12:03:48.049Z,11.47
2018-12-23T12:06:08.205Z,12.30
2018-12-23T12:08:28.126Z,15.77
2018-12-23T12:10:48.412Z,9.17
2018-12-23T12:13:07.957Z,6.80
2018-12-23T12:15:27.476Z,6.30
2018-12-23T12:17:46.848Z,5.37
2018-12-23T12:20:07.992Z,7.07
2018-12-23T12:22:26.760Z,6.57
2018-12-23T12:24:46.707Z,10.80
2018-12-23T12:27:07.549Z,7.77
2018-12-23T12:29:28.193Z,8.53
2018-12-23T12:31:47.844Z,7.60
2018-12-23T12:34:07.644Z,12.30
2018-12-23T12:36:28.066Z,11.83
2018-12-23T12:38:52.138Z,14.03
2018-12-23T12:41:08.705Z,12.47
2018-12-23T12:43:28.466Z,7.87
2018-12-23T12:45:48.097Z,11.77
2018-12-23T12:48:07.826Z,6.63
2018-12-23T12:50:27.615Z,9.20
2018-12-23T12:52:47.169Z,8.80
2018-12-23T12:55:06.985Z,10.10
2018-12-23T12:57:26.538Z,15.70
2018-12-23T12:59:46.199Z,5.60
2018-12-23T13:02:05.707Z,7.83
2018-12-23T13:04:25.659Z,6.73
2018-12-23T13:06:45.673Z,7.30
2018-12-23T13:09:06.753Z,7.63
2018-12-23T13:11:27.112Z,6.50
2018-12-23T13:13:46.750Z,11.73
2018-12-23T13:16:06.464Z,10.40
2018-12-23T13:18:26.486Z,7.80
2018-12-23T13:20:44.994Z,5.97
2018-12-23T13:23:05.214Z,6.87
2018-12-23T13:25:25.099Z,5.90
2018-12-23T13:27:44.686Z,7.17
2018-12-23T13:30:04.268Z,8.57
2018-12-23T13:32:24.106Z,8.57
2018-12-23T13:34:44.624Z,9.00
2018-12-23T13:36:53.258Z,8.50
2018-12-23T13:39:13.547Z,7.67
2018-12-23T13:41:47.729Z,8.30
2018-12-23T13:44:38.070Z,5.70
2018-12-23T13:47:43.404Z,9.80
2018-12-23T13:50:22.678Z,7.90
2018-12-23T13:52:54.025Z,7.63
2018-12-23T13:55:32.865Z,9.60
2018-12-23T13:58:15.876Z,9.13
2018-12-23T14:00:41.041Z,8.27
2018-12-23T14:03:09.982Z,7.20
2018-12-23T14:06:00.897Z,10.27
2018-12-23T14:08:25.339Z,9.03
2018-12-23T14:11:25.615Z,9.80
2018-12-23T14:13:45.893Z,10.20
2018-12-23T14:16:06.015Z,7.70
2018-12-23T14:18:35.355Z,5.57
2018-12-23T14:20:55.882Z,11.37
2018-12-23T14:23:16.361Z,8.30
2018-12-23T14:25:37.747Z,7.60
2018-12-23T14:27:57.586Z,8.97
2018-12-23T14:30:17.852Z,6.93
2018-12-23T14:32:38.207Z,8.17
2018-12-23T14:34:58.183Z,10.07
2018-12-23T14:37:18.150Z,11.07
2018-12-23T14:39:37.766Z,12.33
2018-12-23T14:41:57.390Z,20.10
2018-12-23T14:44:17.619Z,12.40
2018-12-23T14:46:36.084Z,17.73
2018-12-23T14:48:55.908Z,10.83
2018-12-23T14:51:15.889Z,6.43
2018-12-23T14:53:34.232Z,7.47
2018-12-23T14:55:54.324Z,12.30
2018-12-23T14:58:13.730Z,10.90
2018-12-23T15:00:33.804Z,11.33
2018-12-23T15:05:47.123Z,9.57
2018-12-23T15:08:06.725Z,7.70
2018-12-23T15:10:15.049Z,8.30
2018-12-23T15:12:35.038Z,5.37
2018-12-23T15:14:53.544Z,6.00
2018-12-23T15:17:12.391Z,3.50
2018-12-23T15:19:32.128Z,5.50
2018-12-23T15:21:50.573Z,5.77
2018-12-23T15:24:10.648Z,7.77
2018-12-23T15:26:30.032Z,4.47
2018-12-23T15:28:50.042Z,5.23
2018-12-23T15:31:10.110Z,4.70
2018-12-23T15:33:29.858Z,11.43
2018-12-23T15:35:49.803Z,9.73
2018-12-23T15:38:10.040Z,9.43
2018-12-23T15:40:30.126Z,10.90
2018-12-23T15:42:48.683Z,7.43
2018-12-23T15:45:08.014Z,6.50
2018-12-23T15:47:27.765Z,4.60
2018-12-23T15:49:47.637Z,6.17
2018-12-23T15:52:07.055Z,4.90
2018-12-23T15:54:26.561Z,5.27
2018-12-23T15:56:46.237Z,7.00
2018-12-23T15:59:34.029Z,3.97
2018-12-23T16:02:06.751Z,3.10
2018-12-23T16:04:27.074Z,3.20
2018-12-23T16:06:47.619Z,2.73
2018-12-23T16:09:08.291Z,3.30
2018-12-23T16:11:28.403Z,3.10
2018-12-23T16:13:48.098Z,2.60
2018-12-23T16:16:08.556Z,2.67
2018-12-23T16:18:28.676Z,2.50
2018-12-23T16:20:47.702Z,2.80
2018-12-23T16:23:07.302Z,3.60
2018-12-23T16:25:27.202Z,6.27
2018-12-23T16:27:46.701Z,2.40
2018-12-23T16:30:07.142Z,2.10
2018-12-23T16:32:26.691Z,4.83
2018-12-23T16:34:46.249Z,2.27
2018-12-23T16:37:05.844Z,2.00
2018-12-23T16:39:24.609Z,6.90
2018-12-23T16:41:44.006Z,2.13
2018-12-23T16:44:03.699Z,1.50
2018-12-23T16:46:24.293Z,3.10
2018-12-23T16:48:44.136Z,1.93
2018-12-23T16:51:04.308Z,3.43
2018-12-23T16:53:24.126Z,2.37
2018-12-23T16:55:42.717Z,2.50
2018-12-23T16:58:02.825Z,2.07
2018-12-23T17:00:21.293Z,2.90
2018-12-23T17:02:41.228Z,3.23
2018-12-23T17:05:00.622Z,3.53
2018-12-23T17:07:20.087Z,2.40
2018-12-23T17:09:39.818Z,2.23
2018-12-23T17:11:59.948Z,2.53
2018-12-23T17:14:20.341Z,2.37
2018-12-23T17:16:39.843Z,3.00
2018-12-23T17:18:59.668Z,3.13
2018-12-23T17:21:18.510Z,2.30
2018-12-23T17:23:38.518Z,3.30
2018-12-23T17:25:58.969Z,5.27
2018-12-23T17:28:18.824Z,3.50
2018-12-23T17:30:27.445Z,3.20
2018-12-23T17:32:47.128Z,2.40
2018-12-23T17:35:06.115Z,3.13
2018-12-23T17:37:26.235Z,1.97
2018-12-23T17:39:46.646Z,2.23
2018-12-23T17:42:07.155Z,4.13
2018-12-23T17:44:26.660Z,2.33
2018-12-23T17:46:46.262Z,3.37
2018-12-23T17:49:06.180Z,1.90
2018-12-23T17:51:25.629Z,2.50
2018-12-23T17:53:46.139Z,2.80
2018-12-23T17:56:05.793Z,3.07
2018-12-23T17:58:25.929Z,2.23
2018-12-23T18:00:46.265Z,2.30
2018-12-23T18:03:05.822Z,3.00
2018-12-23T18:05:14.323Z,4.00
2018-12-23T18:07:34.484Z,5.10
2018-12-23T18:09:54.184Z,4.30
2018-12-23T18:12:13.758Z,2.83
2018-12-23T18:14:33.575Z,2.30
2018-12-23T18:16:53.832Z,2.50
2018-12-23T18:19:14.176Z,1.87
2018-12-23T18:21:34.285Z,10.23
2018-12-23T18:23:53.925Z,2.83
2018-12-23T18:26:14.106Z,2.90
2018-12-23T18:28:22.589Z,3.43
2018-12-23T18:31:01.891Z,5.97
2018-12-23T18:33:21.817Z,3.17
2018-12-23T18:35:41.859Z,3.23
2018-12-23T18:38:02.091Z,2.10
2018-12-23T18:40:23.161Z,3.20
2018-12-23T18:42:42.650Z,2.93
2018-12-23T18:45:02.185Z,2.13
2018-12-23T18:47:22.226Z,3.57
2018-12-23T18:49:42.503Z,2.10
2018-12-23T18:52:02.354Z,2.07
2018-12-23T18:54:22.555Z,2.63
2018-12-23T18:56:43.978Z,2.10
2018-12-23T18:59:04.092Z,1.70
2018-12-23T19:01:23.789Z,1.47
2018-12-23T19:03:43.264Z,2.77
2018-12-23T19:06:03.901Z,1.70
2018-12-23T19:08:27.260Z,1.80
2018-12-23T19:11:05.866Z,1.90
2018-12-23T19:13:45.100Z,1.77
2018-12-23T19:18:59.566Z,2.00
2018-12-23T19:27:09.607Z,2.40
2018-12-23T19:29:48.083Z,1.30
2018-12-23T19:32:31.857Z,1.43
2018-12-23T19:35:11.211Z,1.40
2018-12-23T19:37:42.662Z,2.17
2018-12-23T19:40:38.252Z,1.90
2018-12-23T19:43:16.856Z,1.40
2018-12-23T19:45:56.423Z,1.40
2018-12-23T19:48:55.650Z,1.67
2018-12-23T19:51:48.377Z,1.50
2018-12-23T19:54:30.404Z,1.40
2018-12-23T19:57:12.369Z,1.70
2018-12-23T19:59:51.724Z,1.60
2018-12-23T20:02:30.304Z,2.27
2018-12-23T20:05:08.984Z,2.23
2018-12-23T20:07:39.107Z,1.50
2018-12-23T20:10:04.716Z,1.40
2018-12-23T20:12:43.438Z,1.50
2018-12-23T20:15:22.068Z,1.60
2018-12-23T20:18:01.783Z,1.40
2018-12-23T20:21:04.296Z,1.90
2018-12-23T20:23:42.882Z,1.97
2018-12-23T20:29:03.918Z,1.50
2018-12-23T20:31:41.626Z,1.47
2018-12-23T20:34:20.020Z,1.77
2018-12-23T20:39:52.433Z,2.80
2018-12-23T20:42:31.396Z,1.60
2018-12-23T20:45:10.568Z,4.00
2018-12-23T20:47:52.522Z,1.30
2018-12-23T20:50:34.683Z,1.30
2018-12-23T20:56:04.689Z,1.40
2018-12-23T20:58:43.194Z,1.20
2018-12-23T21:01:21.692Z,1.53
2018-12-23T21:06:36.373Z,1.50
2018-12-23T21:09:15.744Z,1.20
2018-12-23T21:11:54.903Z,1.50
2018-12-23T21:14:32.287Z,1.60
2018-12-23T21:17:11.247Z,2.17
2018-12-23T21:19:50.632Z,1.30
2018-12-23T21:22:29.069Z,1.30
2018-12-23T21:28:01.205Z,1.70
2018-12-23T21:31:23.758Z,1.40
2018-12-23T21:34:25.129Z,1.40
2018-12-23T21:37:04.007Z,1.80
2018-12-23T21:40:09.317Z,1.30
2018-12-23T21:42:47.651Z,1.40
2018-12-23T21:45:26.838Z,1.50
2018-12-23T21:48:12.433Z,1.40
2018-12-23T21:50:31.344Z,1.30
2018-12-23T21:52:49.939Z,2.10
2018-12-23T21:55:58.018Z,1.40
2018-12-23T21:58:39.876Z,1.37
2018-12-23T22:01:45.606Z,2.50
2018-12-23T22:04:26.142Z,1.20
2018-12-23T22:07:07.467Z,3.27
2018-12-23T22:09:47.917Z,1.10
2018-12-23T22:12:26.345Z,1.27
2018-12-23T22:14:45.839Z,1.10
2018-12-23T22:17:05.666Z,1.50
2018-12-23T22:19:26.171Z,1.37
2018-12-23T22:21:46.301Z,1.53
2018-12-23T22:24:06.525Z,1.93
2018-12-23T22:26:26.030Z,1.70
2018-12-23T22:28:45.753Z,2.53
2018-12-23T22:31:05.068Z,1.20
2018-12-23T22:33:25.328Z,1.80
2018-12-23T22:35:44.689Z,1.20
2018-12-23T22:38:05.306Z,1.40
2018-12-23T22:40:25.291Z,1.60
2018-12-23T22:42:45.471Z,1.30
2018-12-23T22:45:06.577Z,1.60
2018-12-23T22:47:15.030Z,1.40
2018-12-23T22:49:35.144Z,1.90
2018-12-23T22:51:54.793Z,5.33
2018-12-23T22:54:15.488Z,1.60
2018-12-23T22:56:34.915Z,1.60
2018-12-23T22:58:54.868Z,1.90
2018-12-23T23:03:33.379Z,3.03
2018-12-23T23:05:53.630Z,2.97
2018-12-23T23:08:13.247Z,1.43
2018-12-23T23:10:33.028Z,1.40
2018-12-23T23:12:53.228Z,1.30
2018-12-23T23:15:02.343Z,1.30
2018-12-23T23:17:22.619Z,1.60
2018-12-23T23:19:46.769Z,1.50
2018-12-23T23:22:06.486Z,1.50
2018-12-23T23:24:26.055Z,1.30
2018-12-23T23:26:45.603Z,1.20
2018-12-23T23:29:05.360Z,1.40
2018-12-23T23:31:25.766Z,1.97
2018-12-23T23:33:44.172Z,1.20
2018-12-23T23:36:03.558Z,1.30
2018-12-23T23:38:23.544Z,1.40
2018-12-23T23:40:43.366Z,1.13
2018-12-23T23:43:02.843Z,1.20
2018-12-23T23:45:21.599Z,1.20
2018-12-23T23:47:40.063Z,1.30
2018-12-23T23:50:00.452Z,1.40
2018-12-23T23:52:20.140Z,1.23
2018-12-23T23:54:40.256Z,1.60
2018-12-23T23:56:48.541Z,1.13
2018-12-23T23:59:07.974Z,1.20
